createdAt,value
2023-07-03T00:00:23.079Z,16.5
2023-07-03T00:01:32.224Z,16.5
2023-07-03T00:03:50.567Z,16.4
2023-07-03T00:04:59.782Z,16.4
2023-07-03T00:06:08.939Z,16.5
2023-07-03T00:07:18.083Z,16.4
2023-07-03T00:08:27.284Z,16.5
2023-07-03T00:09:36.417Z,16.4
2023-07-03T00:10:45.638Z,16.4
2023-07-03T00:11:54.808Z,16.4
2023-07-03T00:13:02.963Z,16.5
2023-07-03T00:14:12.131Z,16.5
2023-07-03T00:15:21.335Z,16.5
2023-07-03T00:16:30.483Z,16.5
2023-07-03T00:17:38.676Z,16.5
2023-07-03T00:18:46.855Z,16.5
2023-07-03T00:19:56.066Z,16.5
2023-07-03T00:21:05.230Z,16.5
2023-07-03T00:22:14.372Z,16.5
2023-07-03T00:23:23.557Z,16.5
2023-07-03T00:24:32.730Z,16.4
2023-07-03T00:25:41.884Z,16.4
2023-07-03T00:26:51.066Z,16.4
2023-07-03T00:28:00.232Z,16.5
2023-07-03T00:29:09.413Z,16.4
2023-07-03T00:30:18.588Z,16.4
2023-07-03T00:31:27.769Z,16.4
2023-07-03T00:32:36.950Z,16.4
2023-07-03T00:33:45.117Z,16.4
2023-07-03T00:34:54.404Z,16.4
2023-07-03T00:36:03.463Z,16.4
2023-07-03T00:37:12.653Z,16.4
2023-07-03T00:38:21.804Z,16.4
2023-07-03T00:39:30.983Z,16.3
2023-07-03T00:40:39.233Z,16.4
2023-07-03T00:41:47.409Z,16.4
2023-07-03T00:42:55.589Z,16.3
2023-07-03T00:44:04.775Z,16.3
2023-07-03T00:45:13.888Z,16.3
2023-07-03T00:46:23.060Z,16.3
2023-07-03T00:47:32.267Z,16.2
2023-07-03T00:48:41.430Z,16.1
2023-07-03T00:49:50.586Z,16.1
2023-07-03T00:50:59.857Z,16.1
2023-07-03T00:52:08.939Z,16.1
2023-07-03T00:54:27.277Z,16
2023-07-03T00:55:36.438Z,16
2023-07-03T00:56:45.684Z,16
2023-07-03T00:57:53.830Z,16.1
2023-07-03T00:59:02.964Z,16.2
2023-07-03T01:00:12.164Z,16.1
2023-07-03T01:01:21.331Z,16.2
2023-07-03T01:02:30.493Z,16.1
2023-07-03T01:03:39.690Z,16.1
2023-07-03T01:04:48.833Z,16.1
2023-07-03T01:05:57.043Z,16.1
2023-07-03T01:07:05.245Z,16.1
2023-07-03T01:09:23.569Z,16.1
2023-07-03T01:10:32.730Z,16.1
2023-07-03T01:11:41.913Z,16.1
2023-07-03T01:12:51.094Z,16.1
2023-07-03T01:14:00.254Z,16.1
2023-07-03T01:15:09.420Z,16.1
2023-07-03T01:16:18.590Z,16.1
2023-07-03T01:17:27.781Z,16.1
2023-07-03T01:18:36.951Z,16.1
2023-07-03T01:19:46.142Z,16.1
2023-07-03T01:20:55.333Z,16.1
2023-07-03T01:22:03.487Z,16.1
2023-07-03T01:23:12.695Z,16.1
2023-07-03T01:24:21.818Z,16
2023-07-03T01:26:40.211Z,16.1
2023-07-03T01:27:48.356Z,16.1
2023-07-03T01:28:56.551Z,16.1
2023-07-03T01:30:05.707Z,16
2023-07-03T01:31:14.889Z,16.1
2023-07-03T01:32:24.068Z,16.1
2023-07-03T01:33:33.276Z,16.1
2023-07-03T01:34:42.407Z,16.1
2023-07-03T01:35:51.581Z,16
2023-07-03T01:37:00.744Z,16.1
2023-07-03T01:38:09.930Z,16
2023-07-03T01:40:27.320Z,16.1
2023-07-03T01:42:44.651Z,16
2023-07-03T01:43:52.841Z,16
2023-07-03T01:45:01.032Z,16
2023-07-03T01:46:10.190Z,16
2023-07-03T01:47:19.408Z,15.9
2023-07-03T01:49:37.718Z,15.9
2023-07-03T01:50:46.892Z,15.8
2023-07-03T01:51:56.080Z,15.8
2023-07-03T01:53:05.243Z,15.8
2023-07-03T01:54:14.416Z,15.8
2023-07-03T01:55:23.580Z,15.8
2023-07-03T01:56:32.745Z,15.8
2023-07-03T01:57:41.924Z,15.8
2023-07-03T01:58:51.097Z,15.8
2023-07-03T01:59:59.337Z,15.8
2023-07-03T02:01:08.452Z,15.8
2023-07-03T02:02:17.630Z,15.7
2023-07-03T02:03:26.798Z,15.8
2023-07-03T02:04:35.968Z,15.8
2023-07-03T02:05:45.137Z,15.7
2023-07-03T02:06:54.332Z,15.7
2023-07-03T02:08:02.503Z,15.7
2023-07-03T02:09:10.695Z,15.7
2023-07-03T02:11:29.069Z,15.6
2023-07-03T02:12:38.216Z,15.7
2023-07-03T02:13:47.404Z,15.6
2023-07-03T02:14:56.594Z,15.6
2023-07-03T02:16:05.728Z,15.6
2023-07-03T02:17:14.902Z,15.6
2023-07-03T02:18:24.080Z,15.6
2023-07-03T02:19:33.303Z,15.6
2023-07-03T02:20:42.474Z,15.6
2023-07-03T02:21:51.592Z,15.6
2023-07-03T02:23:00.763Z,15.6
2023-07-03T02:24:08.978Z,15.6
2023-07-03T02:26:27.282Z,15.6
2023-07-03T02:27:35.494Z,15.6
2023-07-03T02:28:43.669Z,15.6
2023-07-03T02:29:52.844Z,15.6
2023-07-03T02:31:02.014Z,15.6
2023-07-03T02:32:11.198Z,15.6
2023-07-03T02:33:20.366Z,15.5
2023-07-03T02:34:29.546Z,15.5
2023-07-03T02:35:38.830Z,15.6
2023-07-03T02:36:47.877Z,15.5
2023-07-03T02:37:57.056Z,15.5
2023-07-03T02:39:05.263Z,15.5
2023-07-03T02:41:22.600Z,15.5
2023-07-03T02:42:31.800Z,15.5
2023-07-03T02:43:40.997Z,15.5
2023-07-03T02:44:50.113Z,15.4
2023-07-03T02:45:59.289Z,15.5
2023-07-03T02:47:08.474Z,15.5
2023-07-03T02:48:17.651Z,15.5
2023-07-03T02:49:26.876Z,15.4
2023-07-03T02:50:35.987Z,15.4
2023-07-03T02:51:45.157Z,15.5
2023-07-03T02:52:54.337Z,15.4
2023-07-03T02:54:03.511Z,15.5
2023-07-03T02:55:11.693Z,15.5
2023-07-03T02:56:20.881Z,15.5
2023-07-03T02:57:30.105Z,15.5
2023-07-03T02:58:39.227Z,15.5
2023-07-03T02:59:48.382Z,15.5
2023-07-03T03:00:57.555Z,15.5
2023-07-03T03:02:06.728Z,15.5
2023-07-03T03:03:14.925Z,15.5
2023-07-03T03:04:23.137Z,15.5
2023-07-03T03:05:32.292Z,15.6
2023-07-03T03:06:41.462Z,15.5
2023-07-03T03:07:50.627Z,15.5
2023-07-03T03:08:59.816Z,15.5
2023-07-03T03:10:08.977Z,15.5
2023-07-03T03:11:18.144Z,15.4
2023-07-03T03:12:27.323Z,15.4
2023-07-03T03:13:36.499Z,15.4
2023-07-03T03:15:54.847Z,15.3
2023-07-03T03:17:04.022Z,15.4
2023-07-03T03:18:13.185Z,15.4
2023-07-03T03:19:21.379Z,15.4
2023-07-03T03:20:30.544Z,15.3
2023-07-03T03:21:39.718Z,15.3
2023-07-03T03:22:48.903Z,15.3
2023-07-03T03:23:58.169Z,15.3
2023-07-03T03:26:16.472Z,15.3
2023-07-03T03:27:25.618Z,15.2
2023-07-03T03:28:33.777Z,15.1
2023-07-03T03:29:41.979Z,15.2
2023-07-03T03:30:50.188Z,15.2
2023-07-03T03:31:59.516Z,15.1
2023-07-03T03:33:08.500Z,15.1
2023-07-03T03:34:17.702Z,15.2
2023-07-03T03:35:26.882Z,15.2
2023-07-03T03:36:36.030Z,15.2
2023-07-03T03:37:45.222Z,15.2
2023-07-03T03:38:54.380Z,15.3
2023-07-03T03:40:03.550Z,15.2
2023-07-03T03:41:12.735Z,15.3
2023-07-03T03:42:21.904Z,15.2
2023-07-03T03:43:31.138Z,15.2
2023-07-03T03:44:40.272Z,15.2
2023-07-03T03:46:57.641Z,15.1
2023-07-03T03:48:06.801Z,15.1
2023-07-03T03:49:14.982Z,15.1
2023-07-03T03:50:24.150Z,15.1
2023-07-03T03:51:33.385Z,15.1
2023-07-03T03:52:42.489Z,15.1
2023-07-03T03:53:50.678Z,15.1
2023-07-03T03:54:58.875Z,15
2023-07-03T03:56:08.046Z,15
2023-07-03T03:57:17.342Z,15
2023-07-03T03:58:26.388Z,15
2023-07-03T03:59:35.551Z,15
2023-07-03T04:00:44.736Z,15
2023-07-03T04:01:53.949Z,14.9
2023-07-03T04:03:03.134Z,14.9
2023-07-03T04:04:12.294Z,15
2023-07-03T04:05:21.441Z,15
2023-07-03T04:06:30.651Z,14.9
2023-07-03T04:07:39.780Z,14.9
2023-07-03T04:08:48.955Z,14.9
2023-07-03T04:09:57.245Z,15
2023-07-03T04:11:06.386Z,15
2023-07-03T04:12:15.477Z,15
2023-07-03T04:13:24.722Z,15
2023-07-03T04:14:33.822Z,14.9
2023-07-03T04:15:43.008Z,14.9
2023-07-03T04:16:52.173Z,14.9
2023-07-03T04:18:01.391Z,14.9
2023-07-03T04:19:10.559Z,15
2023-07-03T04:20:18.718Z,14.9
2023-07-03T04:21:26.906Z,14.9
2023-07-03T04:22:35.090Z,14.9
2023-07-03T04:23:44.319Z,14.9
2023-07-03T04:24:53.479Z,14.9
2023-07-03T04:26:02.616Z,15
2023-07-03T04:27:11.801Z,15.1
2023-07-03T04:28:20.975Z,15
2023-07-03T04:29:30.170Z,15
2023-07-03T04:30:39.307Z,15
2023-07-03T04:31:48.480Z,15
2023-07-03T04:32:57.646Z,15
2023-07-03T04:34:06.825Z,15.2
2023-07-03T04:35:15.998Z,15.2
2023-07-03T04:36:25.228Z,15.1
2023-07-03T04:38:42.523Z,15
2023-07-03T04:39:51.842Z,15
2023-07-03T04:41:00.915Z,15.1
2023-07-03T04:42:10.045Z,15.1
2023-07-03T04:43:19.222Z,15.1
2023-07-03T04:44:28.381Z,15.2
2023-07-03T04:45:36.567Z,15.2
2023-07-03T04:46:44.934Z,15.3
2023-07-03T04:47:54.058Z,15.1
2023-07-03T04:49:03.113Z,15.3
2023-07-03T04:50:12.314Z,15.4
2023-07-03T04:51:21.464Z,15.4
2023-07-03T04:52:30.636Z,15.3
2023-07-03T04:53:39.860Z,15.3
2023-07-03T04:54:48.979Z,15.3
2023-07-03T04:55:58.162Z,15.3
2023-07-03T04:57:07.319Z,15.3
2023-07-03T04:58:16.493Z,15.2
2023-07-03T04:59:25.686Z,15.3
2023-07-03T05:00:34.875Z,15.2
2023-07-03T05:01:43.126Z,15.1
2023-07-03T05:02:52.366Z,15.1
2023-07-03T05:04:01.484Z,15.1
2023-07-03T05:05:10.540Z,15.1
2023-07-03T05:06:19.755Z,15.1
2023-07-03T05:07:28.884Z,15.1
2023-07-03T05:08:37.098Z,15.2
2023-07-03T05:09:45.339Z,15.1
2023-07-03T05:10:54.505Z,15.2
2023-07-03T05:12:03.614Z,15.1
2023-07-03T05:13:12.922Z,15.2
2023-07-03T05:14:22.028Z,15.3
2023-07-03T05:15:31.219Z,15.2
2023-07-03T05:16:40.327Z,15.2
2023-07-03T05:17:49.489Z,15.3
2023-07-03T05:18:58.678Z,15.3
2023-07-03T05:20:07.839Z,15.4
2023-07-03T05:21:17.087Z,15.3
2023-07-03T05:22:26.203Z,15.4
2023-07-03T05:24:44.549Z,15.6
2023-07-03T05:25:52.718Z,15.5
2023-07-03T05:27:01.884Z,15.5
2023-07-03T05:28:11.152Z,15.5
2023-07-03T05:29:20.259Z,15.7
2023-07-03T05:30:29.545Z,15.6
2023-07-03T05:31:38.595Z,15.6
2023-07-03T05:32:46.787Z,15.7
2023-07-03T05:33:54.976Z,15.6
2023-07-03T05:35:04.135Z,15.6
2023-07-03T05:36:13.324Z,15.6
2023-07-03T05:37:22.511Z,15.7
2023-07-03T05:38:31.764Z,15.7
2023-07-03T05:39:40.817Z,15.7
2023-07-03T05:40:49.983Z,15.7
2023-07-03T05:41:59.240Z,15.7
2023-07-03T05:43:08.349Z,15.7
2023-07-03T05:44:17.532Z,15.7
2023-07-03T05:45:26.817Z,15.6
2023-07-03T05:46:35.849Z,15.5
2023-07-03T05:47:45.114Z,15.6
2023-07-03T05:48:53.215Z,15.7
2023-07-03T05:51:11.689Z,15.7
2023-07-03T05:52:20.734Z,15.6
2023-07-03T05:53:30.021Z,15.7
2023-07-03T05:54:39.078Z,15.5
2023-07-03T05:55:48.249Z,15.6
2023-07-03T05:56:56.465Z,15.6
2023-07-03T05:58:04.637Z,15.6
2023-07-03T05:59:12.840Z,15.8
2023-07-03T06:00:22.170Z,15.8
2023-07-03T06:01:30.332Z,15.8
2023-07-03T06:02:39.461Z,15.9
2023-07-03T06:03:48.582Z,16.1
2023-07-03T06:04:57.953Z,16.1
2023-07-03T06:06:06.977Z,16.3
2023-07-03T06:07:16.114Z,16.4
2023-07-03T06:08:25.272Z,16.8
2023-07-03T06:09:34.431Z,16.7
2023-07-03T06:10:43.764Z,16.6
2023-07-03T06:11:52.811Z,16.8
2023-07-03T06:13:02.104Z,16.9
2023-07-03T06:14:11.156Z,17
2023-07-03T06:15:20.266Z,16.9
2023-07-03T06:16:28.719Z,16.8
2023-07-03T06:17:37.798Z,17
2023-07-03T06:18:46.936Z,17.1
2023-07-03T06:19:56.101Z,17.2
2023-07-03T06:21:05.231Z,17.2
2023-07-03T06:22:14.352Z,17.1
2023-07-03T06:23:23.499Z,17
2023-07-03T06:24:32.657Z,16.8
2023-07-03T06:25:41.915Z,16.8
2023-07-03T06:26:51.060Z,16.5
2023-07-03T06:28:00.328Z,16.4
2023-07-03T06:29:09.354Z,16.5
2023-07-03T06:30:18.513Z,17
2023-07-03T06:31:27.684Z,17.1
2023-07-03T06:32:35.977Z,17.1
2023-07-03T06:33:45.055Z,17.1
2023-07-03T06:34:54.217Z,17
2023-07-03T06:36:03.409Z,16.9
2023-07-03T06:37:12.639Z,17.1
2023-07-03T06:38:21.830Z,17.2
2023-07-03T06:39:30.992Z,17.4
2023-07-03T06:40:40.188Z,17.2
2023-07-03T06:41:49.369Z,17
2023-07-03T06:42:58.505Z,16.9
2023-07-03T06:44:07.691Z,17.3
2023-07-03T06:45:16.840Z,17.4
2023-07-03T06:46:25.977Z,17.3
2023-07-03T06:47:34.140Z,17
2023-07-03T06:48:43.323Z,17.1
2023-07-03T06:49:52.566Z,17.3
2023-07-03T06:51:01.647Z,17.5
2023-07-03T06:52:10.872Z,17.5
2023-07-03T06:53:20.022Z,17.4
2023-07-03T06:54:29.254Z,17.2
2023-07-03T06:55:38.376Z,17.6
2023-07-03T06:56:47.511Z,17.5
2023-07-03T06:57:56.806Z,17.5
2023-07-03T06:59:05.863Z,17.5
2023-07-03T07:00:15.072Z,17.9
2023-07-03T07:01:24.209Z,17.8
2023-07-03T07:03:42.656Z,17.6
2023-07-03T07:04:50.899Z,17.6
2023-07-03T07:05:58.960Z,17.3
2023-07-03T07:07:07.150Z,17.2
2023-07-03T07:08:16.294Z,17.2
2023-07-03T07:09:25.508Z,17.3
2023-07-03T07:10:34.636Z,17.2
2023-07-03T07:11:43.807Z,17.3
2023-07-03T07:12:52.976Z,17.3
2023-07-03T07:14:02.172Z,17.2
2023-07-03T07:15:11.334Z,17.2
2023-07-03T07:16:20.498Z,17.1
2023-07-03T07:17:29.676Z,17.1
2023-07-03T07:18:38.844Z,17.3
2023-07-03T07:19:48.034Z,17.2
2023-07-03T07:20:57.192Z,17.1
2023-07-03T07:22:05.405Z,17.2
2023-07-03T07:23:14.564Z,17.2
2023-07-03T07:24:23.768Z,17.3
2023-07-03T07:25:32.896Z,17.4
2023-07-03T07:26:42.083Z,17.5
2023-07-03T07:27:51.322Z,17.5
2023-07-03T07:28:59.562Z,17.4
2023-07-03T07:30:07.691Z,17.5
2023-07-03T07:31:16.913Z,17.5
2023-07-03T07:32:26.070Z,17.6
2023-07-03T07:33:35.149Z,17.4
2023-07-03T07:35:53.680Z,17.4
2023-07-03T07:37:02.813Z,17.5
2023-07-03T07:38:11.827Z,17.8
2023-07-03T07:39:21.115Z,17.9
2023-07-03T07:40:29.209Z,18.1
2023-07-03T07:41:38.453Z,17.9
2023-07-03T07:42:47.663Z,18.1
2023-07-03T07:43:56.757Z,18.4
2023-07-03T07:45:05.945Z,18.3
2023-07-03T07:46:15.144Z,18
2023-07-03T07:47:24.315Z,18
2023-07-03T07:48:33.486Z,18.1
2023-07-03T07:49:42.620Z,18.3
2023-07-03T07:50:51.798Z,18.4
2023-07-03T07:52:01.122Z,18.4
2023-07-03T07:53:09.217Z,18.6
2023-07-03T07:54:18.445Z,18
2023-07-03T07:55:27.509Z,17.9
2023-07-03T07:56:36.762Z,17.9
2023-07-03T07:57:45.907Z,18
2023-07-03T07:58:54.168Z,18
2023-07-03T08:00:03.339Z,18
2023-07-03T08:01:12.429Z,17.7
2023-07-03T08:02:21.537Z,17.8
2023-07-03T08:03:30.802Z,17.6
2023-07-03T08:04:40.016Z,17.6
2023-07-03T08:05:49.024Z,17.6
2023-07-03T08:06:58.352Z,17.8
2023-07-03T08:08:07.540Z,17.7
2023-07-03T08:09:16.717Z,17.8
2023-07-03T08:10:25.775Z,17.7
2023-07-03T08:11:34.941Z,17.8
2023-07-03T08:12:44.091Z,17.8
2023-07-03T08:13:53.250Z,17.9
2023-07-03T08:15:01.566Z,17.8
2023-07-03T08:16:10.668Z,17.7
2023-07-03T08:17:18.808Z,17.4
2023-07-03T08:18:27.004Z,17.4
2023-07-03T08:19:35.208Z,17.4
2023-07-03T08:20:44.496Z,17.5
2023-07-03T08:21:53.659Z,17.6
2023-07-03T08:23:02.701Z,17.6
2023-07-03T08:24:12.069Z,17.8
2023-07-03T08:25:21.048Z,17.8
2023-07-03T08:26:30.209Z,17.8
2023-07-03T08:27:39.511Z,18.1
2023-07-03T08:28:48.550Z,18.1
2023-07-03T08:29:57.739Z,18.5
2023-07-03T08:31:06.980Z,18.5
2023-07-03T08:32:16.086Z,18.2
2023-07-03T08:33:25.302Z,18.4
2023-07-03T08:34:33.507Z,18.2
2023-07-03T08:35:42.611Z,18.2
2023-07-03T08:36:51.783Z,17.9
2023-07-03T08:38:00.945Z,17.9
2023-07-03T08:39:10.132Z,17.9
2023-07-03T08:40:19.377Z,18.3
2023-07-03T08:41:27.648Z,18.3
2023-07-03T08:42:35.799Z,18.1
2023-07-03T08:43:43.970Z,18
2023-07-03T08:44:53.197Z,18.1
2023-07-03T08:46:02.307Z,18.2
2023-07-03T08:47:11.547Z,18
2023-07-03T08:48:20.609Z,18.2
2023-07-03T08:49:29.725Z,18.3
2023-07-03T08:50:38.927Z,18.4
2023-07-03T08:51:48.175Z,18.2
2023-07-03T08:52:57.254Z,18.4
2023-07-03T08:54:06.502Z,18.4
2023-07-03T08:55:15.591Z,18.3
2023-07-03T08:56:24.781Z,18.4
2023-07-03T08:57:33.993Z,18.8
2023-07-03T08:58:42.203Z,18.2
2023-07-03T08:59:51.295Z,18.1
2023-07-03T09:01:00.542Z,18.3
2023-07-03T09:02:09.768Z,18.5
2023-07-03T09:03:18.946Z,18.3
2023-07-03T09:04:28.088Z,18.1
2023-07-03T09:05:36.323Z,18.3
2023-07-03T09:06:44.610Z,18.3
2023-07-03T09:07:53.707Z,18.5
2023-07-03T09:09:02.853Z,18.8
2023-07-03T09:10:11.965Z,18.6
2023-07-03T09:11:21.113Z,18.4
2023-07-03T09:12:30.379Z,18.6
2023-07-03T09:13:39.402Z,18.8
2023-07-03T09:14:48.749Z,18.6
2023-07-03T09:15:57.929Z,18.7
2023-07-03T09:17:06.925Z,18.9
2023-07-03T09:18:16.191Z,19.1
2023-07-03T09:19:25.404Z,19
2023-07-03T09:20:34.447Z,19.2
2023-07-03T09:21:42.672Z,19.3
2023-07-03T09:22:51.803Z,19.2
2023-07-03T09:24:00.973Z,19
2023-07-03T09:25:10.240Z,18.7
2023-07-03T09:27:28.478Z,18.4
2023-07-03T09:28:37.726Z,18.6
2023-07-03T09:29:47.001Z,18.7
2023-07-03T09:30:55.100Z,18.9
2023-07-03T09:33:12.404Z,19
2023-07-03T09:34:21.579Z,18.8
2023-07-03T09:35:30.728Z,18.4
2023-07-03T09:36:40.005Z,18.3
2023-07-03T09:37:49.091Z,18.3
2023-07-03T09:38:58.253Z,18.2
2023-07-03T09:40:07.458Z,18.2
2023-07-03T09:41:16.657Z,18.1
2023-07-03T09:42:25.764Z,18.2
2023-07-03T09:43:35.013Z,18.2
2023-07-03T09:44:44.196Z,18
2023-07-03T09:45:53.366Z,18
2023-07-03T09:47:01.532Z,18.1
2023-07-03T09:48:10.666Z,18.1
2023-07-03T09:49:19.883Z,18.2
2023-07-03T09:50:28.994Z,18.2
2023-07-03T09:51:38.182Z,18.3
2023-07-03T09:52:47.335Z,18.3
2023-07-03T09:53:56.566Z,18.6
2023-07-03T09:55:04.700Z,18.7
2023-07-03T09:56:12.889Z,18.9
2023-07-03T09:57:21.105Z,18.7
2023-07-03T09:59:38.484Z,18.9
2023-07-03T10:00:47.615Z,19.4
2023-07-03T10:01:56.803Z,19.4
2023-07-03T10:03:05.966Z,19.3
2023-07-03T10:04:15.134Z,19.1
2023-07-03T10:05:24.317Z,19.5
2023-07-03T10:06:33.492Z,19.6
2023-07-03T10:07:42.669Z,19.3
2023-07-03T10:08:51.842Z,19.6
2023-07-03T10:10:00.996Z,19.8
2023-07-03T10:11:10.178Z,19.4
2023-07-03T10:12:19.361Z,19.8
2023-07-03T10:13:27.683Z,19.6
2023-07-03T10:14:36.705Z,19.1
2023-07-03T10:15:45.952Z,18.8
2023-07-03T10:16:55.257Z,18.6
2023-07-03T10:18:04.399Z,18.8
2023-07-03T10:19:13.677Z,18.9
2023-07-03T10:20:22.760Z,18.9
2023-07-03T10:21:31.916Z,18.9
2023-07-03T10:22:40.914Z,18.6
2023-07-03T10:23:50.085Z,18.5
2023-07-03T10:24:59.268Z,18.4
2023-07-03T10:26:07.449Z,18.6
2023-07-03T10:27:15.647Z,18.5
2023-07-03T10:28:24.810Z,18.6
2023-07-03T10:29:34.042Z,18.4
2023-07-03T10:30:43.158Z,18.4
2023-07-03T10:31:52.322Z,18.6
2023-07-03T10:33:01.564Z,18.5
2023-07-03T10:34:10.684Z,18.7
2023-07-03T10:35:19.937Z,18.6
2023-07-03T10:36:29.181Z,18.6
2023-07-03T10:37:38.261Z,18.4
2023-07-03T10:38:47.581Z,18.5
2023-07-03T10:39:56.764Z,18.9
2023-07-03T10:41:05.710Z,18.8
2023-07-03T10:42:13.900Z,18.7
2023-07-03T10:44:32.236Z,19.2
2023-07-03T10:45:41.423Z,19.1
2023-07-03T10:46:50.597Z,19.2
2023-07-03T10:47:59.759Z,19
2023-07-03T10:49:08.924Z,18.9
2023-07-03T10:50:18.128Z,18.8
2023-07-03T10:51:27.307Z,18.6
2023-07-03T10:52:36.633Z,18.9
2023-07-03T10:53:45.613Z,19.2
2023-07-03T10:54:55.057Z,19.4
2023-07-03T10:56:03.966Z,19.4
2023-07-03T10:57:12.175Z,19.5
2023-07-03T10:58:21.363Z,19.6
2023-07-03T10:59:30.497Z,19.6
2023-07-03T11:00:39.687Z,19.5
2023-07-03T11:01:47.991Z,19.1
2023-07-03T11:02:57.135Z,18.6
2023-07-03T11:04:05.289Z,18.9
2023-07-03T11:05:13.536Z,19.2
2023-07-03T11:06:22.675Z,19.1
2023-07-03T11:07:31.773Z,19.1
2023-07-03T11:08:40.975Z,19
2023-07-03T11:09:50.125Z,19.3
2023-07-03T11:10:59.299Z,19.1
2023-07-03T11:12:08.467Z,19.4
2023-07-03T11:13:17.648Z,18.8
2023-07-03T11:14:26.963Z,18.5
2023-07-03T11:15:36.080Z,18.4
2023-07-03T11:16:45.363Z,18.7
2023-07-03T11:17:54.520Z,18.7
2023-07-03T11:19:03.509Z,18.6
2023-07-03T11:20:11.736Z,18.7
2023-07-03T11:21:20.865Z,18.8
2023-07-03T11:22:30.036Z,18.5
2023-07-03T11:23:39.213Z,18.5
2023-07-03T11:24:48.376Z,18.4
2023-07-03T11:25:57.546Z,18.1
2023-07-03T11:27:06.711Z,18.1
2023-07-03T11:28:15.943Z,18.2
2023-07-03T11:29:25.120Z,18.3
2023-07-03T11:30:34.278Z,18.3
2023-07-03T11:31:42.664Z,18.3
2023-07-03T11:32:51.658Z,18.5
2023-07-03T11:34:00.782Z,18.5
2023-07-03T11:35:09.941Z,18.2
2023-07-03T11:36:19.113Z,18.2
2023-07-03T11:37:28.289Z,18.5
2023-07-03T11:38:37.471Z,18.8
2023-07-03T11:39:46.655Z,19.4
2023-07-03T11:40:55.820Z,20.1
2023-07-03T11:42:04.985Z,20
2023-07-03T11:43:14.148Z,20.1
2023-07-03T11:44:23.340Z,20
2023-07-03T11:45:32.492Z,20.1
2023-07-03T11:46:41.673Z,19.8
2023-07-03T11:47:49.868Z,20.1
2023-07-03T11:48:59.030Z,20.6
2023-07-03T11:51:17.383Z,19.9
2023-07-03T11:52:26.553Z,20.3
2023-07-03T11:53:35.731Z,20.2
2023-07-03T11:54:44.929Z,20.5
2023-07-03T11:55:54.074Z,20.4
2023-07-03T11:57:03.246Z,20.1
2023-07-03T11:58:12.402Z,19.9
2023-07-03T11:59:21.598Z,20
2023-07-03T12:01:39.980Z,20.4
2023-07-03T12:02:49.209Z,21
2023-07-03T12:03:57.517Z,20.9
2023-07-03T12:05:06.476Z,21.2
2023-07-03T12:06:15.646Z,22
2023-07-03T12:07:24.811Z,21.4
2023-07-03T12:09:43.154Z,20.7
2023-07-03T12:10:51.380Z,20.1
2023-07-03T12:11:59.530Z,19.8
2023-07-03T12:13:08.712Z,19.7
2023-07-03T12:14:17.878Z,19.7
2023-07-03T12:15:27.053Z,19.6
2023-07-03T12:16:36.232Z,19.2
2023-07-03T12:17:45.409Z,19.3
2023-07-03T12:18:54.583Z,19.2
2023-07-03T12:20:03.754Z,19.4
2023-07-03T12:21:12.924Z,19.7
2023-07-03T12:22:22.091Z,19.9
2023-07-03T12:23:30.288Z,20.7
2023-07-03T12:24:38.469Z,20.9
2023-07-03T12:25:47.656Z,21.4
2023-07-03T12:26:56.828Z,21.1
2023-07-03T12:28:05.990Z,20.9
2023-07-03T12:29:15.166Z,20.5
2023-07-03T12:30:24.391Z,20.4
2023-07-03T12:31:33.521Z,20.4
2023-07-03T12:32:42.682Z,20.2
2023-07-03T12:33:51.854Z,20.1
2023-07-03T12:35:01.024Z,20.3
2023-07-03T12:36:10.197Z,20.7
2023-07-03T12:37:19.377Z,21.1
2023-07-03T12:38:28.548Z,21.1
2023-07-03T12:39:36.736Z,21.5
2023-07-03T12:40:45.901Z,20.9
2023-07-03T12:41:55.094Z,20.6
2023-07-03T12:43:04.250Z,20.7
2023-07-03T12:44:13.415Z,20.5
2023-07-03T12:45:22.584Z,20.4
2023-07-03T12:46:30.806Z,20.3
2023-07-03T12:47:38.975Z,20.8
2023-07-03T12:48:48.156Z,21.4
2023-07-03T12:49:57.305Z,21.3
2023-07-03T12:51:06.503Z,21.5
2023-07-03T12:52:15.735Z,21.5
2023-07-03T12:53:24.979Z,21.8
2023-07-03T12:54:34.079Z,21.6
2023-07-03T12:55:43.205Z,21.1
2023-07-03T12:56:52.357Z,20.9
2023-07-03T12:58:01.532Z,20.9
2023-07-03T12:59:10.701Z,20.7
2023-07-03T13:00:19.880Z,20.9
2023-07-03T13:01:29.048Z,21.7
2023-07-03T13:02:37.249Z,21.5
2023-07-03T13:03:46.410Z,21.2
2023-07-03T13:04:55.585Z,21.4
2023-07-03T13:06:04.762Z,21.3
2023-07-03T13:07:13.933Z,21.6
2023-07-03T13:08:23.099Z,21.2
2023-07-03T13:09:32.265Z,20.6
2023-07-03T13:10:41.448Z,20.6
2023-07-03T13:11:50.616Z,20.8
2023-07-03T13:12:59.784Z,21
2023-07-03T13:14:08.965Z,21.2
2023-07-03T13:15:18.143Z,21.2
2023-07-03T13:16:26.330Z,21.2
2023-07-03T13:17:34.526Z,21
2023-07-03T13:18:42.712Z,20.9
2023-07-03T13:19:51.913Z,20.9
2023-07-03T13:21:01.050Z,20.9
2023-07-03T13:23:19.394Z,20.2
2023-07-03T13:24:28.589Z,20.1
2023-07-03T13:25:37.758Z,20.1
2023-07-03T13:26:46.915Z,20.2
2023-07-03T13:27:56.280Z,20.1
2023-07-03T13:29:05.265Z,20
2023-07-03T13:30:14.448Z,20
2023-07-03T13:31:23.606Z,20.1
2023-07-03T13:32:32.775Z,20
2023-07-03T13:33:40.961Z,20
2023-07-03T13:34:50.144Z,19.9
2023-07-03T13:35:59.320Z,19.9
2023-07-03T13:37:08.502Z,19.9
2023-07-03T13:38:17.656Z,19.8
2023-07-03T13:39:26.839Z,19.7
2023-07-03T13:40:36.007Z,19.8
2023-07-03T13:41:45.184Z,19.9
2023-07-03T13:42:54.373Z,19.9
2023-07-03T13:44:03.526Z,20
2023-07-03T13:45:12.695Z,20.1
2023-07-03T13:46:21.882Z,20.1
2023-07-03T13:47:31.065Z,20.4
2023-07-03T13:48:39.230Z,20.9
2023-07-03T13:49:48.410Z,20.9
2023-07-03T13:50:57.577Z,21
2023-07-03T13:52:06.752Z,21
2023-07-03T13:53:15.923Z,21
2023-07-03T13:54:25.104Z,21.1
2023-07-03T13:55:34.272Z,21
2023-07-03T13:56:43.441Z,21.1
2023-07-03T13:57:52.623Z,21
2023-07-03T13:59:01.807Z,20.7
2023-07-03T14:01:20.130Z,20.5
2023-07-03T14:02:29.312Z,20.4
2023-07-03T14:03:37.541Z,20.3
2023-07-03T14:04:46.669Z,20.4
2023-07-03T14:05:55.841Z,20.3
2023-07-03T14:08:14.192Z,20.2
2023-07-03T14:09:23.356Z,20.1
2023-07-03T14:10:32.530Z,20.3
2023-07-03T14:11:41.698Z,20.4
2023-07-03T14:12:50.880Z,20.5
2023-07-03T14:14:00.066Z,20.4
2023-07-03T14:15:09.214Z,20.3
2023-07-03T14:16:18.386Z,20.3
2023-07-03T14:17:27.563Z,20.2
2023-07-03T14:18:35.749Z,20.2
2023-07-03T14:19:43.981Z,20.1
2023-07-03T14:20:53.116Z,20
2023-07-03T14:22:02.289Z,20.1
2023-07-03T14:23:11.471Z,20
2023-07-03T14:24:20.628Z,19.8
2023-07-03T14:25:29.816Z,19.8
2023-07-03T14:26:38.972Z,19.6
2023-07-03T14:27:48.145Z,19.6
2023-07-03T14:28:57.319Z,19.6
2023-07-03T14:30:06.490Z,19.6
2023-07-03T14:31:15.675Z,19.6
2023-07-03T14:32:24.834Z,19.6
2023-07-03T14:33:34.017Z,19.7
2023-07-03T14:34:42.192Z,19.8
2023-07-03T14:35:51.370Z,19.8
2023-07-03T14:37:00.546Z,19.9
2023-07-03T14:38:09.723Z,20
2023-07-03T14:39:18.891Z,20.2
2023-07-03T14:40:28.074Z,20.4
2023-07-03T14:41:37.248Z,20.5
2023-07-03T14:42:46.407Z,20.4
2023-07-03T14:43:55.572Z,20.3
2023-07-03T14:45:04.761Z,20.3
2023-07-03T14:46:13.925Z,20.5
2023-07-03T14:47:23.104Z,20.4
2023-07-03T14:48:32.267Z,20.4
2023-07-03T14:49:40.460Z,20.4
2023-07-03T14:50:49.624Z,20.2
2023-07-03T14:51:58.800Z,20.5
2023-07-03T14:53:07.983Z,20.5
2023-07-03T14:54:17.146Z,20.4
2023-07-03T14:55:26.325Z,20.3
2023-07-03T14:56:35.489Z,20.1
2023-07-03T14:57:44.669Z,20.1
2023-07-03T14:58:52.859Z,20.1
2023-07-03T15:00:01.048Z,20.1
2023-07-03T15:01:10.212Z,20.2
2023-07-03T15:02:19.387Z,20.1
2023-07-03T15:03:28.571Z,20.1
2023-07-03T15:04:37.722Z,20.1
2023-07-03T15:05:46.911Z,20.1
2023-07-03T15:06:56.085Z,20.2
2023-07-03T15:08:05.253Z,20
2023-07-03T15:09:14.425Z,20.1
2023-07-03T15:10:23.611Z,20.2
2023-07-03T15:11:32.774Z,20.2
2023-07-03T15:12:41.945Z,20.1
2023-07-03T15:13:51.114Z,20.2
2023-07-03T15:14:59.303Z,20.2
2023-07-03T15:16:08.474Z,20.1
2023-07-03T15:17:17.655Z,20.1
2023-07-03T15:18:26.820Z,20.2
2023-07-03T15:19:36.016Z,20.1
2023-07-03T15:20:45.161Z,20.2
2023-07-03T15:21:53.364Z,20.3
2023-07-03T15:23:01.565Z,20.2
2023-07-03T15:24:09.762Z,20.2
2023-07-03T15:25:18.930Z,20.2
2023-07-03T15:26:28.099Z,20.4
2023-07-03T15:27:37.271Z,20.3
2023-07-03T15:28:46.444Z,20.2
2023-07-03T15:29:55.617Z,20.1
2023-07-03T15:31:04.775Z,20.2
2023-07-03T15:32:13.958Z,20.2
2023-07-03T15:33:23.151Z,20.1
2023-07-03T15:34:32.308Z,20.2
2023-07-03T15:35:41.470Z,20.3
2023-07-03T15:36:50.643Z,20.4
2023-07-03T15:37:59.818Z,20.5
2023-07-03T15:39:08.011Z,20.4
2023-07-03T15:40:17.200Z,20.1
2023-07-03T15:41:26.357Z,20
2023-07-03T15:42:35.533Z,20
2023-07-03T15:43:44.695Z,20.1
2023-07-03T15:44:53.872Z,19.9
2023-07-03T15:46:03.046Z,19.9
2023-07-03T15:47:12.227Z,19.8
2023-07-03T15:48:21.384Z,19.8
2023-07-03T15:49:30.556Z,19.8
2023-07-03T15:50:39.732Z,19.9
2023-07-03T15:51:48.905Z,19.8
2023-07-03T15:52:58.075Z,19.8
2023-07-03T15:54:06.268Z,19.9
2023-07-03T15:56:24.621Z,19.9
2023-07-03T15:57:33.783Z,19.9